»·PEaware :: CLU393 KSFO-KLAX

CLU393 :: KSFO-KLAX

FLIGHT INFORMATION

Flight Status: Arrived
Operator: Unknown
More flights by this operator :: More flights under this callsign
Pilot: Skye D. (10623)
Aircraft: Unknown
(B748)
More flights by this aircraft type
Origin: KSFO San Francisco Intl
United States
Destination: KLAX Los Angeles Intl
United States
More flights between these airports :: More routes between these airports
Route: +WESLA4 EBAYE BURGL IRNMN2
File this flight plan on PilotEdge
Remarks: CS / FIREBIRD
Altitude:
(Current/Filed)
33,000ft
Speed:
(Current/Filed)
461kts
Departed: 20-Feb-19 01:32 PM
Arrived: 20-Feb-19 02:33 PM
Distance/Time
Traveled:
294nm/1:01
Distance/Time
To Go:
Arrived

Flight Plot

Page will automatically refresh every two minutes.

Flight plan parsing failed; only flown route is shown


Map Options




Map Legend


Flown Route
Filed Route
Departure Airport
Arrival Airport
Navaid (VOR, NDB)
Fix

Horizontal Profiles

Position Reports

Time Latitude Longitude Heading Altitude Ground
Speed
20-Feb-19 12:58 37.638332 -122.389666 58 22ft 0kts
20-Feb-19 12:59 37.638332 -122.389666 58 22ft 0kts
20-Feb-19 13:00 37.638332 -122.389666 58 22ft 0kts
20-Feb-19 13:01 37.638332 -122.389666 58 22ft 0kts
20-Feb-19 13:02 37.638332 -122.389666 58 22ft 0kts
20-Feb-19 13:03 37.638332 -122.389666 58 22ft 0kts
20-Feb-19 13:04 37.638332 -122.389666 58 22ft 0kts
20-Feb-19 13:05 37.638332 -122.389666 58 22ft 0kts
20-Feb-19 13:06 37.638332 -122.389666 58 22ft 0kts
20-Feb-19 13:07 37.638332 -122.389666 58 22ft 0kts
20-Feb-19 13:08 37.638332 -122.389666 58 22ft 0kts
20-Feb-19 13:09 37.638332 -122.389666 58 22ft 0kts
20-Feb-19 13:10 37.638332 -122.389666 58 22ft 0kts
20-Feb-19 13:11 37.638332 -122.389666 58 22ft 0kts
20-Feb-19 13:12 37.638332 -122.389666 58 22ft 0kts
20-Feb-19 13:13 37.638332 -122.389666 58 22ft 0kts
20-Feb-19 13:14 37.638253 -122.389780 12 22ft 2kts
20-Feb-19 13:15 37.637773 -122.390024 29 22ft 2kts
20-Feb-19 13:16 37.637664 -122.389721 133 22ft 2kts
20-Feb-19 13:17 37.637112 -122.389324 148 22ft 0kts
20-Feb-19 13:18 37.637112 -122.389324 148 22ft 0kts
20-Feb-19 13:19 37.636363 -122.388746 149 22ft 12kts
20-Feb-19 13:20 37.634176 -122.389823 253 21ft 10kts
20-Feb-19 13:21 37.634065 -122.390231 249 22ft 0kts
20-Feb-19 13:22 37.632217 -122.391414 166 21ft 13kts
20-Feb-19 13:23 37.629826 -122.391925 147 22ft 14kts
20-Feb-19 13:24 37.627936 -122.387759 118 23ft 27kts
20-Feb-19 13:25 37.625342 -122.381561 117 30ft 24kts
20-Feb-19 13:26 37.623153 -122.376391 118 28ft 23kts
20-Feb-19 13:27 37.620497 -122.370017 118 18ft 28kts
20-Feb-19 13:29 37.617764 -122.363552 118 17ft 27kts
20-Feb-19 13:30 37.615299 -122.357626 118 15ft 13kts
20-Feb-19 13:31 37.613691 -122.357605 290 15ft 7kts
20-Feb-19 13:32 37.621362 -122.375820 297 589ft 163kts
20-Feb-19 13:33 37.636889 -122.412819 297 2631ft 161kts
20-Feb-19 13:34 37.654716 -122.456747 298 3699ft 226kts
20-Feb-19 13:35 37.670350 -122.509820 269 5944ft 247kts
20-Feb-19 13:36 37.647049 -122.572980 229 8262ft 279kts
20-Feb-19 13:37 37.583128 -122.578399 146 10517ft 324kts
20-Feb-19 13:38 37.533193 -122.517651 138 11261ft 386kts
20-Feb-19 13:39 37.461989 -122.440444 134 12441ft 443kts
20-Feb-19 13:40 37.379221 -122.326132 129 15288ft 464kts
20-Feb-19 13:41 37.304839 -122.221918 130 17414ft 485kts
20-Feb-19 13:42 37.227360 -122.117133 130 19277ft 505kts
20-Feb-19 13:43 37.140030 -121.999962 129 21158ft 526kts
20-Feb-19 13:44 37.064411 -121.898542 129 22856ft 537kts
20-Feb-19 13:45 36.986773 -121.794467 129 24152ft 555kts
20-Feb-19 13:46 36.908621 -121.690170 129 25621ft 567kts
20-Feb-19 13:47 36.834538 -121.592552 130 26824ft 577kts
20-Feb-19 13:47 36.752956 -121.486028 129 28077ft 588kts
20-Feb-19 13:49 36.640938 -121.338218 129 29968ft 596kts
20-Feb-19 13:50 36.548816 -121.215688 129 31888ft 591kts
20-Feb-19 13:50 36.471947 -121.114416 130 33039ft 578kts
20-Feb-19 13:51 36.379446 -120.990845 127 33050ft 580kts
20-Feb-19 13:53 36.251847 -120.803844 126 33049ft 578kts
20-Feb-19 13:54 36.163338 -120.676458 128 33050ft 578kts
20-Feb-19 13:54 36.088457 -120.570770 128 33054ft 578kts
20-Feb-19 13:55 36.005716 -120.453898 128 33056ft 577kts
20-Feb-19 13:56 35.924698 -120.339227 128 33055ft 575kts
20-Feb-19 13:57 35.831468 -120.220859 142 33034ft 578kts
20-Feb-19 13:58 35.704916 -120.134188 157 33032ft 577kts
20-Feb-19 13:59 35.585929 -120.055046 148 33033ft 578kts
20-Feb-19 14:00 35.453899 -119.947127 147 33026ft 574kts
20-Feb-19 14:01 35.336678 -119.858848 150 33017ft 572kts
20-Feb-19 14:02 35.219943 -119.767438 143 33021ft 571kts
20-Feb-19 14:03 35.116518 -119.665261 140 32401ft 545kts
20-Feb-19 14:04 35.018118 -119.569983 142 31573ft 536kts
20-Feb-19 14:05 34.935613 -119.495135 143 30565ft 531kts
20-Feb-19 14:06 34.861073 -119.428002 144 28142ft 511kts
20-Feb-19 14:07 34.784137 -119.359692 144 26788ft 479kts
20-Feb-19 14:08 34.709820 -119.293233 145 25531ft 466kts
20-Feb-19 14:09 34.618395 -119.213438 146 23952ft 451kts
20-Feb-19 14:10 34.529840 -119.137114 146 22215ft 436kts
20-Feb-19 14:11 34.444378 -119.060868 146 19944ft 419kts
20-Feb-19 14:12 34.367233 -118.993792 148 17552ft 399kts
20-Feb-19 14:13 34.283555 -118.919682 146 15112ft 385kts
20-Feb-19 14:14 34.215163 -118.856348 146 14083ft 341kts
20-Feb-19 14:15 34.149181 -118.794171 142 12001ft 333kts
20-Feb-19 14:16 34.095021 -118.734806 140 11148ft 322kts
20-Feb-19 14:17 34.038963 -118.669209 123 9840ft 307kts
20-Feb-19 14:18 34.022873 -118.605780 95 9060ft 292kts
20-Feb-19 14:19 34.018781 -118.540233 95 8069ft 284kts
20-Feb-19 14:20 34.012536 -118.478071 98 7727ft 248kts
20-Feb-19 14:21 34.015240 -118.411632 73 6586ft 241kts
20-Feb-19 14:22 34.029367 -118.344870 84 5068ft 229kts
20-Feb-19 14:23 34.036827 -118.282699 82 3627ft 218kts
20-Feb-19 14:24 34.043674 -118.230927 82 2992ft 175kts
20-Feb-19 14:25 34.019178 -118.203678 171 2333ft 184kts
20-Feb-19 14:26 33.978758 -118.200213 201 2180ft 182kts
20-Feb-19 14:27 33.952553 -118.239749 255 1967ft 186kts
20-Feb-19 14:28 33.947637 -118.284040 262 1728ft 164kts
20-Feb-19 14:29 33.943612 -118.322524 262 1123ft 152kts
20-Feb-19 14:30 33.939325 -118.364421 263 455ft 143kts
20-Feb-19 14:31 33.935940 -118.396465 263 117ft 55kts
20-Feb-19 14:32 33.935177 -118.401149 250 125ft 16kts
20-Feb-19 14:33 33.933666 -118.401431 171 126ft 2kts
20-Feb-19 14:34 33.933300 -118.401367 173 126ft 0kts
20-Feb-19 14:35 33.933300 -118.401367 173 126ft 0kts
20-Feb-19 14:36 33.933300 -118.401367 173 126ft 0kts

Navigation Log

Ident Type
Flight plan parsing failed, navigation log unavailable